createdAt,value
2017-12-13T00:00:19.177Z,18.10
2017-12-13T00:01:19.206Z,16.70
2017-12-13T00:02:19.242Z,16.40
2017-12-13T00:03:19.272Z,16.70
2017-12-13T00:04:19.302Z,18.10
2017-12-13T00:05:19.332Z,16.00
2017-12-13T00:06:19.363Z,19.70
2017-12-13T00:07:19.390Z,17.90
2017-12-13T00:08:19.422Z,20.40
2017-12-13T00:09:19.454Z,17.10
2017-12-13T00:10:19.483Z,13.40
2017-12-13T00:11:19.513Z,12.30
2017-12-13T00:12:19.543Z,15.80
2017-12-13T00:13:19.574Z,12.40
2017-12-13T00:14:19.605Z,14.50
2017-12-13T00:15:19.636Z,17.20
2017-12-13T00:16:19.665Z,17.90
2017-12-13T00:17:19.696Z,16.80
2017-12-13T00:18:19.727Z,16.80
2017-12-13T00:19:19.756Z,18.00
2017-12-13T00:20:19.789Z,16.90
2017-12-13T00:21:19.822Z,15.00
2017-12-13T00:22:19.850Z,20.90
2017-12-13T00:23:19.881Z,17.50
2017-12-13T00:24:19.915Z,15.90
2017-12-13T00:25:19.945Z,19.80
2017-12-13T00:26:19.975Z,18.30
2017-12-13T00:27:20.005Z,18.90
2017-12-13T00:28:20.035Z,18.60
2017-12-13T00:29:20.060Z,17.40
2017-12-13T00:30:20.095Z,14.40
2017-12-13T00:31:20.123Z,14.60
2017-12-13T00:32:20.153Z,13.00
2017-12-13T00:33:20.187Z,15.10
2017-12-13T00:34:20.215Z,13.50
2017-12-13T00:35:20.245Z,13.50
2017-12-13T00:36:20.276Z,14.50
2017-12-13T00:37:20.305Z,12.60
2017-12-13T00:38:20.335Z,14.40
2017-12-13T00:39:20.365Z,10.80
2017-12-13T00:40:20.435Z,12.40
2017-12-13T00:41:20.421Z,14.40
2017-12-13T00:42:20.456Z,14.00
2017-12-13T00:43:20.486Z,12.70
2017-12-13T00:44:20.524Z,16.40
2017-12-13T00:45:20.544Z,17.80
2017-12-13T00:46:20.570Z,18.10
2017-12-13T00:47:20.614Z,15.50
2017-12-13T00:48:20.631Z,15.90
2017-12-13T00:49:20.664Z,14.30
2017-12-13T00:50:20.691Z,16.20
2017-12-13T00:51:20.722Z,16.60
2017-12-13T00:52:20.759Z,11.80
2017-12-13T00:53:20.781Z,14.70
2017-12-13T00:54:20.812Z,14.10
2017-12-13T00:55:20.842Z,11.50
2017-12-13T00:56:20.879Z,11.60
2017-12-13T00:57:20.907Z,14.70
2017-12-13T00:58:20.933Z,16.60
2017-12-13T00:59:20.964Z,14.60
2017-12-13T01:00:20.993Z,12.90
2017-12-13T01:01:21.030Z,13.90
2017-12-13T01:02:21.053Z,15.10
2017-12-13T01:03:21.083Z,14.30
2017-12-13T01:04:21.156Z,13.10
2017-12-13T01:05:21.144Z,12.70
2017-12-13T01:06:21.176Z,15.60
2017-12-13T01:07:21.204Z,13.50
2017-12-13T01:08:21.233Z,15.90
2017-12-13T01:09:21.265Z,13.20
2017-12-13T01:10:21.294Z,13.50
2017-12-13T01:11:21.324Z,14.40
2017-12-13T01:12:21.355Z,24.50
2017-12-13T01:13:21.388Z,24.10
2017-12-13T01:14:21.415Z,17.40
2017-12-13T01:15:21.446Z,27.20
2017-12-13T01:16:21.473Z,30.30
2017-12-13T01:17:21.504Z,29.30
2017-12-13T01:18:21.535Z,28.20
2017-12-13T01:19:21.570Z,22.30
2017-12-13T01:20:21.595Z,18.10
2017-12-13T01:21:21.625Z,17.20
2017-12-13T01:22:21.658Z,18.30
2017-12-13T01:23:21.696Z,17.20
2017-12-13T01:24:21.721Z,15.90
2017-12-13T01:25:21.745Z,14.40
2017-12-13T01:26:21.775Z,16.10
2017-12-13T01:27:21.810Z,17.10
2017-12-13T01:28:21.836Z,16.10
2017-12-13T01:29:21.868Z,14.70
2017-12-13T01:30:21.896Z,16.20
2017-12-13T01:31:21.930Z,14.70
2017-12-13T01:32:21.965Z,12.10
2017-12-13T01:33:21.992Z,16.10
2017-12-13T01:34:22.016Z,12.30
2017-12-13T01:35:22.045Z,10.70
2017-12-13T01:36:22.081Z,19.30
2017-12-13T01:37:22.107Z,19.20
2017-12-13T01:38:22.141Z,19.60
2017-12-13T01:39:22.171Z,15.30
2017-12-13T01:40:22.209Z,11.70
2017-12-13T01:41:22.230Z,12.00
2017-12-13T01:42:22.265Z,13.00
2017-12-13T01:43:22.291Z,12.10
2017-12-13T01:44:22.320Z,12.90
2017-12-13T01:45:22.352Z,10.40
2017-12-13T01:46:22.384Z,11.10
2017-12-13T01:47:22.433Z,12.90
2017-12-13T01:48:22.444Z,13.90
2017-12-13T01:49:22.476Z,11.90
2017-12-13T01:50:22.504Z,13.20
2017-12-13T01:51:22.533Z,14.10
2017-12-13T01:52:22.563Z,14.90
2017-12-13T01:53:22.594Z,13.60
2017-12-13T01:54:22.622Z,13.90
2017-12-13T01:55:22.653Z,11.90
2017-12-13T01:56:22.682Z,10.60
2017-12-13T01:57:22.713Z,10.20
2017-12-13T01:58:22.743Z,11.40
2017-12-13T01:59:22.774Z,14.90
2017-12-13T02:00:22.806Z,13.50
2017-12-13T02:01:22.835Z,9.90
2017-12-13T02:02:22.865Z,10.80
2017-12-13T02:03:22.894Z,12.30
2017-12-13T02:04:22.942Z,14.80
2017-12-13T02:05:22.954Z,12.30
2017-12-13T02:06:22.985Z,13.10
2017-12-13T02:07:23.016Z,12.90
2017-12-13T02:08:23.047Z,9.40
2017-12-13T02:09:23.078Z,9.80
2017-12-13T02:10:23.107Z,11.60
2017-12-13T02:11:23.137Z,11.10
2017-12-13T02:12:23.167Z,11.80
2017-12-13T02:13:23.197Z,15.10
2017-12-13T02:14:23.227Z,14.00
2017-12-13T02:15:23.261Z,17.50
2017-12-13T02:16:23.296Z,15.80
2017-12-13T02:17:23.319Z,15.40
2017-12-13T02:18:23.351Z,16.50
2017-12-13T02:19:23.381Z,16.10
2017-12-13T02:20:23.412Z,16.90
2017-12-13T02:21:23.441Z,14.90
2017-12-13T02:22:23.470Z,12.00
2017-12-13T02:23:23.515Z,12.20
2017-12-13T02:24:23.532Z,12.10
2017-12-13T02:25:23.561Z,16.30
2017-12-13T02:26:23.591Z,10.30
2017-12-13T02:27:23.621Z,15.90
2017-12-13T02:28:23.656Z,13.70
2017-12-13T02:29:23.682Z,11.90
2017-12-13T02:30:23.711Z,11.20
2017-12-13T02:31:23.740Z,10.80
2017-12-13T02:32:23.776Z,10.70
2017-12-13T02:33:23.807Z,14.00
2017-12-13T02:34:23.838Z,12.30
2017-12-13T02:35:23.868Z,11.80
2017-12-13T02:36:23.897Z,9.80
2017-12-13T02:37:23.931Z,11.50
2017-12-13T02:38:23.963Z,12.20
2017-12-13T02:39:23.989Z,12.80
2017-12-13T02:40:24.043Z,23.10
2017-12-13T02:41:24.047Z,18.90
2017-12-13T02:42:24.077Z,19.00
2017-12-13T02:43:24.107Z,15.60
2017-12-13T02:44:24.139Z,13.20
2017-12-13T02:45:24.168Z,12.50
2017-12-13T02:46:24.197Z,11.00
2017-12-13T02:47:24.284Z,14.90
2017-12-13T02:48:24.260Z,21.60
2017-12-13T02:49:24.290Z,19.70
2017-12-13T02:50:24.319Z,21.40
2017-12-13T02:51:24.349Z,20.00
2017-12-13T02:52:24.379Z,19.30
2017-12-13T02:53:24.408Z,22.70
2017-12-13T02:54:24.444Z,21.40
2017-12-13T02:55:24.473Z,16.20
2017-12-13T02:56:24.500Z,16.00
2017-12-13T02:57:24.532Z,16.20
2017-12-13T02:58:24.561Z,19.60
2017-12-13T02:59:24.602Z,18.20
2017-12-13T03:00:24.620Z,15.40
2017-12-13T03:01:24.651Z,22.60
2017-12-13T03:02:24.679Z,23.10
2017-12-13T03:03:24.708Z,22.10
2017-12-13T03:04:24.740Z,51.20
2017-12-13T03:05:24.772Z,51.70
2017-12-13T03:06:24.810Z,37.90
2017-12-13T03:07:24.832Z,33.20
2017-12-13T03:08:24.862Z,24.50
2017-12-13T03:09:24.890Z,16.30
2017-12-13T03:10:24.921Z,22.50
2017-12-13T03:11:24.951Z,23.50
2017-12-13T03:12:24.980Z,21.70
2017-12-13T03:13:25.011Z,20.60
2017-12-13T03:14:25.038Z,19.00
2017-12-13T03:15:25.070Z,19.70
2017-12-13T03:16:25.101Z,16.90
2017-12-13T03:17:25.133Z,19.10
2017-12-13T03:18:25.161Z,17.20
2017-12-13T03:19:25.189Z,24.20
2017-12-13T03:20:25.221Z,29.80
2017-12-13T03:21:25.251Z,27.00
2017-12-13T03:22:25.282Z,17.30
2017-12-13T03:23:25.316Z,14.20
2017-12-13T03:24:25.340Z,18.30
2017-12-13T03:25:25.379Z,22.10
2017-12-13T03:26:25.397Z,19.20
2017-12-13T03:27:25.427Z,16.50
2017-12-13T03:28:25.457Z,14.60
2017-12-13T03:29:25.486Z,14.10
2017-12-13T03:30:25.518Z,16.30
2017-12-13T03:31:25.549Z,16.50
2017-12-13T03:32:25.577Z,16.90
2017-12-13T03:33:25.606Z,17.00
2017-12-13T03:34:25.637Z,15.60
2017-12-13T03:35:25.669Z,13.90
2017-12-13T03:36:25.697Z,16.80
2017-12-13T03:37:25.728Z,18.60
2017-12-13T03:38:25.760Z,16.90
2017-12-13T03:39:25.789Z,18.30
2017-12-13T03:40:25.873Z,19.20
2017-12-13T03:41:25.846Z,20.30
2017-12-13T03:42:25.877Z,17.70
2017-12-13T03:43:25.906Z,18.50
2017-12-13T03:44:25.938Z,21.00
2017-12-13T03:45:25.968Z,20.10
2017-12-13T03:46:26.000Z,19.80
2017-12-13T03:47:26.101Z,23.20
2017-12-13T03:48:26.057Z,19.20
2017-12-13T03:49:26.087Z,17.00
2017-12-13T03:50:26.118Z,18.40
2017-12-13T03:51:26.144Z,17.50
2017-12-13T03:52:26.178Z,17.90
2017-12-13T03:53:26.209Z,20.00
2017-12-13T03:54:26.236Z,17.30
2017-12-13T03:55:26.269Z,16.70
2017-12-13T03:56:26.297Z,18.70
2017-12-13T03:57:26.325Z,18.80
2017-12-13T03:58:26.356Z,16.80
2017-12-13T03:59:26.400Z,18.80
2017-12-13T04:00:26.415Z,17.30
2017-12-13T04:01:26.454Z,18.10
2017-12-13T04:02:26.476Z,15.20
2017-12-13T04:03:26.508Z,13.50
2017-12-13T04:04:26.538Z,16.90
2017-12-13T04:05:26.565Z,19.40
2017-12-13T04:06:26.602Z,16.40
2017-12-13T04:07:26.627Z,23.30
2017-12-13T04:08:26.660Z,26.00
2017-12-13T04:09:26.687Z,18.50
2017-12-13T04:10:26.717Z,21.10
2017-12-13T04:11:26.747Z,26.30
2017-12-13T04:12:26.776Z,26.70
2017-12-13T04:13:26.806Z,23.40
2017-12-13T04:14:26.836Z,19.20
2017-12-13T04:15:26.869Z,22.00
2017-12-13T04:16:26.898Z,16.90
2017-12-13T04:17:26.926Z,16.40
2017-12-13T04:18:26.963Z,21.80
2017-12-13T04:19:26.988Z,18.50
2017-12-13T04:20:27.018Z,18.00
2017-12-13T04:21:27.048Z,18.50
2017-12-13T04:22:27.080Z,19.50
2017-12-13T04:23:27.168Z,20.60
2017-12-13T04:24:27.137Z,16.80
2017-12-13T04:25:27.163Z,15.70
2017-12-13T04:26:27.199Z,18.90
2017-12-13T04:27:27.223Z,16.60
2017-12-13T04:28:27.258Z,18.80
2017-12-13T04:29:27.283Z,20.30
2017-12-13T04:30:27.315Z,17.80
2017-12-13T04:31:27.342Z,18.00
2017-12-13T04:32:27.373Z,19.50
2017-12-13T04:33:27.405Z,18.70
2017-12-13T04:34:27.432Z,16.30
2017-12-13T04:35:27.467Z,17.50
2017-12-13T04:36:27.490Z,17.10
2017-12-13T04:37:27.529Z,17.50
2017-12-13T04:38:27.554Z,17.10
2017-12-13T04:39:27.582Z,19.10
2017-12-13T04:40:27.615Z,18.40
2017-12-13T04:41:27.642Z,18.30
2017-12-13T04:42:27.670Z,14.90
2017-12-13T04:43:27.700Z,20.30
2017-12-13T04:44:27.729Z,16.10
2017-12-13T04:45:27.770Z,17.70
2017-12-13T04:46:27.784Z,17.10
2017-12-13T04:47:27.864Z,16.00
2017-12-13T04:48:27.846Z,16.30
2017-12-13T04:49:27.875Z,16.50
2017-12-13T04:50:27.905Z,15.60
2017-12-13T04:51:27.936Z,16.20
2017-12-13T04:52:27.971Z,14.90
2017-12-13T04:53:27.993Z,16.00
2017-12-13T04:54:28.024Z,15.00
2017-12-13T04:55:28.054Z,13.20
2017-12-13T04:56:28.082Z,17.40
2017-12-13T04:57:28.111Z,14.20
2017-12-13T04:58:28.140Z,12.30
2017-12-13T04:59:28.187Z,15.20
2017-12-13T05:00:28.201Z,14.70
2017-12-13T05:01:28.232Z,15.90
2017-12-13T05:02:28.262Z,12.40
2017-12-13T05:03:28.291Z,13.20
2017-12-13T05:04:28.323Z,13.90
2017-12-13T05:05:28.346Z,12.60
2017-12-13T05:06:28.377Z,12.60
2017-12-13T05:07:28.413Z,11.90
2017-12-13T05:08:28.438Z,14.20
2017-12-13T05:09:28.467Z,12.50
2017-12-13T05:10:28.499Z,12.40
2017-12-13T05:11:28.528Z,12.20
2017-12-13T05:12:28.559Z,11.40
2017-12-13T05:13:28.585Z,12.80
2017-12-13T05:14:28.617Z,10.90
2017-12-13T05:15:28.649Z,15.90
2017-12-13T05:16:28.705Z,14.00
2017-12-13T05:17:28.705Z,12.40
2017-12-13T05:18:28.735Z,12.00
2017-12-13T05:19:28.766Z,11.60
2017-12-13T05:20:28.795Z,10.70
2017-12-13T05:21:28.823Z,12.40
2017-12-13T05:22:28.856Z,10.80
2017-12-13T05:23:28.960Z,11.80
2017-12-13T05:24:28.913Z,12.20
2017-12-13T05:25:28.944Z,10.70
2017-12-13T05:26:28.972Z,11.50
2017-12-13T05:27:29.003Z,14.60
2017-12-13T05:28:29.034Z,12.20
2017-12-13T05:29:29.065Z,14.70
2017-12-13T05:30:29.093Z,15.50
2017-12-13T05:31:29.124Z,13.00
2017-12-13T05:32:29.154Z,12.70
2017-12-13T05:33:29.187Z,11.50
2017-12-13T05:34:29.214Z,12.00
2017-12-13T05:35:29.246Z,11.90
2017-12-13T05:36:29.274Z,10.80
2017-12-13T05:37:29.311Z,11.40
2017-12-13T05:38:29.336Z,11.80
2017-12-13T05:39:29.369Z,11.80
2017-12-13T05:40:29.396Z,10.50
2017-12-13T05:41:29.426Z,8.50
2017-12-13T05:42:29.457Z,11.70
2017-12-13T05:43:29.486Z,13.50
2017-12-13T05:44:29.516Z,12.90
2017-12-13T05:45:29.565Z,12.00
2017-12-13T05:46:29.577Z,8.80
2017-12-13T05:47:29.606Z,11.70
2017-12-13T05:48:29.636Z,12.60
2017-12-13T05:49:29.668Z,10.20
2017-12-13T05:50:29.695Z,12.30
2017-12-13T05:51:29.726Z,11.70
2017-12-13T05:52:29.806Z,11.20
2017-12-13T05:53:29.787Z,12.90
2017-12-13T05:54:29.816Z,11.90
2017-12-13T05:55:29.848Z,10.60
2017-12-13T05:56:29.876Z,11.30
2017-12-13T05:57:29.905Z,12.30
2017-12-13T05:58:29.938Z,11.70
2017-12-13T05:59:29.979Z,9.30
2017-12-13T06:00:30.006Z,9.80
2017-12-13T06:01:30.028Z,10.90
2017-12-13T06:02:30.072Z,11.50
2017-12-13T06:03:30.089Z,10.70
2017-12-13T06:04:30.124Z,10.90
2017-12-13T06:05:30.150Z,9.70
2017-12-13T06:06:30.274Z,12.00
2017-12-13T06:07:30.209Z,10.70
2017-12-13T06:08:30.241Z,10.30
2017-12-13T06:09:30.271Z,10.20
2017-12-13T06:10:30.303Z,9.00
2017-12-13T06:11:30.329Z,10.20
2017-12-13T06:12:30.360Z,11.40
2017-12-13T06:13:30.392Z,10.20
2017-12-13T06:14:30.421Z,10.40
2017-12-13T06:15:30.450Z,9.90
2017-12-13T06:16:30.482Z,10.80
2017-12-13T06:17:30.515Z,9.80
2017-12-13T06:18:30.541Z,10.80
2017-12-13T06:19:30.573Z,10.10
2017-12-13T06:20:30.605Z,12.00
2017-12-13T06:21:30.633Z,10.40
2017-12-13T06:22:30.664Z,11.20
2017-12-13T06:23:30.704Z,10.70
2017-12-13T06:24:30.724Z,11.20
2017-12-13T06:25:30.755Z,14.00
2017-12-13T06:26:30.785Z,13.60
2017-12-13T06:27:30.813Z,10.50
2017-12-13T06:28:30.850Z,13.40
2017-12-13T06:29:30.881Z,10.40
2017-12-13T06:30:30.916Z,11.20
2017-12-13T06:31:30.941Z,14.30
2017-12-13T06:32:30.970Z,13.70
2017-12-13T06:33:31.001Z,13.70
2017-12-13T06:34:31.033Z,20.80
2017-12-13T06:35:31.062Z,16.40
2017-12-13T06:36:31.092Z,12.00
2017-12-13T06:37:31.120Z,10.10
2017-12-13T06:38:31.151Z,11.20
2017-12-13T06:39:31.181Z,15.50
2017-12-13T06:40:31.214Z,15.70
2017-12-13T06:41:31.241Z,15.70
2017-12-13T06:42:31.309Z,14.40
2017-12-13T06:43:31.327Z,11.40
2017-12-13T06:44:31.330Z,11.30
2017-12-13T06:45:31.362Z,13.10
2017-12-13T06:46:31.390Z,9.80
2017-12-13T06:47:31.421Z,11.30
2017-12-13T06:48:31.453Z,10.80
2017-12-13T06:49:31.554Z,9.90
2017-12-13T06:50:31.513Z,11.60
2017-12-13T06:51:31.544Z,9.90
2017-12-13T06:52:31.574Z,8.60
2017-12-13T06:53:31.614Z,9.40
2017-12-13T06:54:31.635Z,11.20
2017-12-13T06:55:31.667Z,10.80
2017-12-13T06:56:31.699Z,8.40
2017-12-13T06:57:31.737Z,9.30
2017-12-13T06:58:31.758Z,8.50
2017-12-13T06:59:31.790Z,9.00
2017-12-13T07:00:31.816Z,11.00
2017-12-13T07:01:31.848Z,10.60
2017-12-13T07:02:31.886Z,10.50
2017-12-13T07:03:31.915Z,11.00
2017-12-13T07:04:31.942Z,12.80
2017-12-13T07:05:31.968Z,8.30
2017-12-13T07:06:32.043Z,9.30
2017-12-13T07:07:32.032Z,12.70
2017-12-13T07:08:32.064Z,10.10
2017-12-13T07:09:32.092Z,8.80
2017-12-13T07:10:32.125Z,7.80
2017-12-13T07:11:32.154Z,8.70
2017-12-13T07:12:32.184Z,10.10
2017-12-13T07:13:32.236Z,11.10
2017-12-13T07:14:32.245Z,8.50
2017-12-13T07:15:32.276Z,9.90
2017-12-13T07:16:32.304Z,8.10
2017-12-13T07:17:32.334Z,9.30
2017-12-13T07:18:32.364Z,8.20
2017-12-13T07:19:32.396Z,12.90
2017-12-13T07:20:32.426Z,9.50
2017-12-13T07:21:32.457Z,8.70
2017-12-13T07:22:32.492Z,8.00
2017-12-13T07:23:32.570Z,8.00
2017-12-13T07:24:32.547Z,8.20
2017-12-13T07:25:32.579Z,6.20
2017-12-13T07:26:32.610Z,9.10
2017-12-13T07:27:32.637Z,9.80
2017-12-13T07:28:32.667Z,9.00
2017-12-13T07:29:32.698Z,9.70
2017-12-13T07:30:32.731Z,10.50
2017-12-13T07:31:32.759Z,10.90
2017-12-13T07:32:32.791Z,9.40
2017-12-13T07:33:32.822Z,7.30
2017-12-13T07:34:32.852Z,10.00
2017-12-13T07:35:32.936Z,6.60
2017-12-13T07:36:32.929Z,9.00
2017-12-13T07:37:32.942Z,9.70
2017-12-13T07:38:32.973Z,8.40
2017-12-13T07:39:33.002Z,7.50
2017-12-13T07:40:33.046Z,10.60
2017-12-13T07:41:33.063Z,7.60
2017-12-13T07:42:33.159Z,9.60
2017-12-13T07:43:33.127Z,8.80
2017-12-13T07:44:33.157Z,7.20
2017-12-13T07:45:33.187Z,9.60
2017-12-13T07:46:33.217Z,9.20
2017-12-13T07:47:33.248Z,6.90
2017-12-13T07:48:33.278Z,11.60
2017-12-13T07:49:33.322Z,8.80
2017-12-13T07:50:33.338Z,10.90
2017-12-13T07:51:33.371Z,7.40
2017-12-13T07:52:33.397Z,8.20
2017-12-13T07:53:33.440Z,7.40
2017-12-13T07:54:33.460Z,10.50
2017-12-13T07:55:33.490Z,7.80
2017-12-13T07:56:33.521Z,9.20
2017-12-13T07:57:33.580Z,11.00
2017-12-13T07:58:33.591Z,8.90
2017-12-13T07:59:33.668Z,9.50
2017-12-13T08:00:33.643Z,7.70
2017-12-13T08:01:33.670Z,6.60
2017-12-13T08:02:33.703Z,10.20
2017-12-13T08:03:33.733Z,8.60
2017-12-13T08:04:33.765Z,6.80
2017-12-13T08:05:33.804Z,8.10
2017-12-13T08:06:33.891Z,7.40
2017-12-13T08:07:33.861Z,10.00
2017-12-13T08:08:33.891Z,9.50
2017-12-13T08:09:33.917Z,7.10
2017-12-13T08:10:33.949Z,7.60
2017-12-13T08:11:33.982Z,7.80
2017-12-13T08:12:34.009Z,9.70
2017-12-13T08:13:34.039Z,10.10
2017-12-13T08:14:34.069Z,7.10
2017-12-13T08:15:34.105Z,6.30
2017-12-13T08:16:34.135Z,10.00
2017-12-13T08:17:34.163Z,7.70
2017-12-13T08:18:34.192Z,8.00
2017-12-13T08:19:34.224Z,11.00
2017-12-13T08:20:34.256Z,5.70
2017-12-13T08:21:34.285Z,9.30
2017-12-13T08:22:34.316Z,7.70
2017-12-13T08:23:34.349Z,8.50
2017-12-13T08:24:34.381Z,6.60
2017-12-13T08:25:34.527Z,10.30
2017-12-13T08:26:34.449Z,8.00
2017-12-13T08:27:34.472Z,7.10
2017-12-13T08:28:34.502Z,8.10
2017-12-13T08:29:34.531Z,6.60
2017-12-13T08:30:34.569Z,8.30
2017-12-13T08:31:34.597Z,7.40
2017-12-13T08:32:34.623Z,6.10
2017-12-13T08:33:34.653Z,8.10
2017-12-13T08:34:34.686Z,10.80
2017-12-13T08:35:34.721Z,8.60
2017-12-13T08:36:34.747Z,9.30
2017-12-13T08:37:34.782Z,7.10
2017-12-13T08:38:34.806Z,8.00
2017-12-13T08:39:34.843Z,8.50
2017-12-13T08:40:34.872Z,8.20
2017-12-13T08:41:34.903Z,8.70
2017-12-13T08:42:34.975Z,7.70
2017-12-13T08:43:34.962Z,8.70
2017-12-13T08:44:34.994Z,7.10
2017-12-13T08:45:35.025Z,6.60
2017-12-13T08:46:35.059Z,6.30
2017-12-13T08:47:35.107Z,9.30
2017-12-13T08:48:35.118Z,6.40
2017-12-13T08:49:35.257Z,6.40
2017-12-13T08:50:35.184Z,5.70
2017-12-13T08:51:35.213Z,6.20
2017-12-13T08:52:35.243Z,9.60
2017-12-13T08:53:35.273Z,6.60
2017-12-13T08:54:35.305Z,6.10
2017-12-13T08:55:35.389Z,8.90
2017-12-13T08:56:35.376Z,8.60
2017-12-13T08:57:35.397Z,9.00
2017-12-13T08:58:35.429Z,7.70
2017-12-13T08:59:35.464Z,8.30
2017-12-13T09:00:35.501Z,9.80
2017-12-13T09:01:35.519Z,9.40
2017-12-13T09:02:35.554Z,6.60
2017-12-13T09:03:35.585Z,8.20
2017-12-13T09:04:35.616Z,8.60
2017-12-13T09:05:35.644Z,8.00
2017-12-13T09:06:35.689Z,8.80
2017-12-13T09:07:35.709Z,7.60
2017-12-13T09:08:35.742Z,8.10
2017-12-13T09:09:35.769Z,7.10
2017-12-13T09:10:35.801Z,6.00
2017-12-13T09:11:35.830Z,8.70
2017-12-13T09:12:35.866Z,8.00
2017-12-13T09:13:35.895Z,8.40
2017-12-13T09:14:35.927Z,9.70
2017-12-13T09:15:35.955Z,7.50
2017-12-13T09:16:35.990Z,8.80
2017-12-13T09:17:36.018Z,6.50
2017-12-13T09:18:36.111Z,8.30
2017-12-13T09:19:36.083Z,6.90
2017-12-13T09:20:36.113Z,7.40
2017-12-13T09:21:36.141Z,8.70
2017-12-13T09:22:36.173Z,8.70
2017-12-13T09:23:36.205Z,6.30
2017-12-13T09:24:36.238Z,7.10
2017-12-13T09:25:36.292Z,8.40
2017-12-13T09:26:36.297Z,8.10
2017-12-13T09:27:36.331Z,7.40
2017-12-13T09:28:36.363Z,6.70
2017-12-13T09:29:36.390Z,7.60
2017-12-13T09:30:36.423Z,8.70
2017-12-13T09:31:36.459Z,8.80
2017-12-13T09:32:36.490Z,7.70
2017-12-13T09:33:36.518Z,7.30
2017-12-13T09:34:36.548Z,6.70
2017-12-13T09:35:36.590Z,9.40
2017-12-13T09:36:36.611Z,9.90
2017-12-13T09:37:36.641Z,7.30
2017-12-13T09:38:36.673Z,6.40
2017-12-13T09:39:36.710Z,6.80
2017-12-13T09:40:36.737Z,5.30
2017-12-13T09:41:36.769Z,9.60
2017-12-13T09:42:36.810Z,6.70
2017-12-13T09:43:36.830Z,8.00
2017-12-13T09:44:36.865Z,7.20
2017-12-13T09:45:36.891Z,8.10
2017-12-13T09:46:36.929Z,6.60
2017-12-13T09:47:36.954Z,5.50
2017-12-13T09:48:37.002Z,5.60
2017-12-13T09:49:37.114Z,7.70
2017-12-13T09:50:37.051Z,8.00
2017-12-13T09:51:37.082Z,6.10
2017-12-13T09:52:37.111Z,9.00
2017-12-13T09:53:37.141Z,8.20
2017-12-13T09:54:37.175Z,7.00
2017-12-13T09:55:37.211Z,6.20
2017-12-13T09:56:37.241Z,6.50
2017-12-13T09:57:37.283Z,9.10
2017-12-13T09:58:37.301Z,8.00
2017-12-13T09:59:37.333Z,8.20
2017-12-13T10:00:37.364Z,7.60
2017-12-13T10:01:37.398Z,5.10
2017-12-13T10:02:37.425Z,7.20
2017-12-13T10:03:37.461Z,5.50
2017-12-13T10:04:37.491Z,7.00
2017-12-13T10:05:37.521Z,5.90
2017-12-13T10:06:37.551Z,8.40
2017-12-13T10:07:37.583Z,8.50
2017-12-13T10:08:37.623Z,7.70
2017-12-13T10:09:37.646Z,7.60
2017-12-13T10:10:37.677Z,7.70
2017-12-13T10:11:37.711Z,5.40
2017-12-13T10:12:37.740Z,8.90
2017-12-13T10:13:37.772Z,7.20
2017-12-13T10:14:37.806Z,8.70
2017-12-13T10:15:37.835Z,9.10
2017-12-13T10:16:37.867Z,6.20
2017-12-13T10:17:37.898Z,8.80
2017-12-13T10:18:37.933Z,8.30
2017-12-13T10:19:37.961Z,7.30
2017-12-13T10:20:37.995Z,9.00
2017-12-13T10:21:38.026Z,9.00
2017-12-13T10:22:38.070Z,10.50
2017-12-13T10:23:38.089Z,9.40
2017-12-13T10:24:38.124Z,10.60
2017-12-13T10:25:38.154Z,7.30
2017-12-13T10:26:38.183Z,8.10
2017-12-13T10:27:38.214Z,7.60
2017-12-13T10:28:38.246Z,7.90
2017-12-13T10:29:38.286Z,7.70
2017-12-13T10:30:38.308Z,6.10
2017-12-13T10:31:38.343Z,7.90
2017-12-13T10:32:38.474Z,5.60
2017-12-13T10:33:38.404Z,6.20
2017-12-13T10:34:38.436Z,7.40
2017-12-13T10:35:38.466Z,7.50
2017-12-13T10:36:38.503Z,5.50
2017-12-13T10:37:38.529Z,6.40
2017-12-13T10:38:38.564Z,5.80
2017-12-13T10:39:38.608Z,8.40
2017-12-13T10:40:38.624Z,6.20
2017-12-13T10:41:38.658Z,6.80
2017-12-13T10:42:38.688Z,5.30
2017-12-13T10:43:38.724Z,6.10
2017-12-13T10:44:38.754Z,6.40
2017-12-13T10:45:38.786Z,6.70
2017-12-13T10:46:38.816Z,6.30
2017-12-13T10:47:38.849Z,7.30
2017-12-13T10:48:38.876Z,4.90
2017-12-13T10:49:38.917Z,5.90
2017-12-13T10:50:38.946Z,6.40
2017-12-13T10:51:38.975Z,6.00
2017-12-13T10:52:39.008Z,6.80
2017-12-13T10:53:39.038Z,4.80
2017-12-13T10:54:39.073Z,7.90
2017-12-13T10:55:39.106Z,6.60
2017-12-13T10:56:39.168Z,7.90
2017-12-13T10:57:39.165Z,6.20
2017-12-13T10:58:39.199Z,4.50
2017-12-13T10:59:39.229Z,6.30
2017-12-13T11:00:39.262Z,9.20
2017-12-13T11:01:39.297Z,8.50
2017-12-13T11:02:39.326Z,5.90
2017-12-13T11:03:39.357Z,7.40
2017-12-13T11:04:39.396Z,7.20
2017-12-13T11:05:39.418Z,4.70
2017-12-13T11:06:39.451Z,8.30
2017-12-13T11:07:39.481Z,6.50
2017-12-13T11:08:39.517Z,5.80
2017-12-13T11:09:39.546Z,6.10
2017-12-13T11:10:39.587Z,5.20
2017-12-13T11:11:39.610Z,5.80
2017-12-13T11:12:39.643Z,6.70
2017-12-13T11:13:39.691Z,5.90
2017-12-13T11:14:39.753Z,5.00
2017-12-13T11:15:39.793Z,4.60
2017-12-13T11:16:39.771Z,6.10
2017-12-13T11:17:39.802Z,7.40
2017-12-13T11:18:39.833Z,7.00
2017-12-13T11:19:39.869Z,6.20
2017-12-13T11:20:39.899Z,6.80
2017-12-13T11:21:39.929Z,6.70
2017-12-13T11:22:40.071Z,6.40
2017-12-13T11:23:39.999Z,7.10
2017-12-13T11:24:40.029Z,5.20
2017-12-13T11:25:40.061Z,5.80
2017-12-13T11:26:40.090Z,5.10
2017-12-13T11:27:40.121Z,6.50
2017-12-13T11:28:40.151Z,6.70
2017-12-13T11:29:40.183Z,7.80
2017-12-13T11:30:40.218Z,6.60
2017-12-13T11:31:40.249Z,6.30
2017-12-13T11:32:40.305Z,5.80
2017-12-13T11:33:40.310Z,6.50
2017-12-13T11:34:40.348Z,7.60
2017-12-13T11:35:40.380Z,7.10
2017-12-13T11:36:40.412Z,5.30
2017-12-13T11:37:40.444Z,8.40
2017-12-13T11:38:40.473Z,9.10
2017-12-13T11:39:40.517Z,6.60
2017-12-13T11:40:40.541Z,5.00
2017-12-13T11:41:40.570Z,5.50
2017-12-13T11:42:40.601Z,7.80
2017-12-13T11:43:40.633Z,5.70
2017-12-13T11:44:40.665Z,6.90
2017-12-13T11:45:40.694Z,5.90
2017-12-13T11:46:40.813Z,7.90
2017-12-13T11:47:40.760Z,6.30
2017-12-13T11:48:40.792Z,7.40
2017-12-13T11:49:40.824Z,6.00
2017-12-13T11:50:40.862Z,6.50
2017-12-13T11:51:40.906Z,5.90
2017-12-13T11:52:40.923Z,4.70
2017-12-13T11:53:40.951Z,6.30
2017-12-13T11:54:40.986Z,4.50
2017-12-13T11:55:41.016Z,10.60
2017-12-13T11:56:41.051Z,7.20
2017-12-13T11:57:41.081Z,5.80
2017-12-13T11:58:41.116Z,6.20
2017-12-13T11:59:41.147Z,4.70
2017-12-13T12:00:41.182Z,4.70
2017-12-13T12:01:41.212Z,7.50
2017-12-13T12:02:41.243Z,7.70
2017-12-13T12:03:41.275Z,7.20
2017-12-13T12:04:41.308Z,4.20
2017-12-13T12:05:41.427Z,5.60
2017-12-13T12:06:41.373Z,4.10
2017-12-13T12:07:41.403Z,3.20
2017-12-13T12:08:41.435Z,5.10
2017-12-13T12:09:41.469Z,5.50
2017-12-13T12:10:41.554Z,5.00
2017-12-13T12:11:41.533Z,5.30
2017-12-13T12:12:41.564Z,4.80
2017-12-13T12:13:41.596Z,5.50
2017-12-13T12:14:41.630Z,4.80
2017-12-13T12:15:41.667Z,3.90
2017-12-13T12:16:41.702Z,5.30
2017-12-13T12:17:41.729Z,4.40
2017-12-13T12:18:41.760Z,4.20
2017-12-13T12:19:41.788Z,5.50
2017-12-13T12:20:41.824Z,6.90
2017-12-13T12:21:41.854Z,5.60
2017-12-13T12:22:41.919Z,4.80
2017-12-13T12:23:41.920Z,5.80
2017-12-13T12:24:41.954Z,7.70
2017-12-13T12:25:41.984Z,6.00
2017-12-13T12:26:42.015Z,5.60
2017-12-13T12:27:42.047Z,5.90
2017-12-13T12:28:42.079Z,3.50
2017-12-13T12:29:42.251Z,5.10
2017-12-13T12:30:42.144Z,5.50
2017-12-13T12:31:42.177Z,3.70
2017-12-13T12:32:42.209Z,5.50
2017-12-13T12:33:42.239Z,5.90
2017-12-13T12:34:42.275Z,4.50
2017-12-13T12:35:42.306Z,4.60
2017-12-13T12:36:42.338Z,5.00
2017-12-13T12:37:42.368Z,5.60
2017-12-13T12:38:42.412Z,6.60
2017-12-13T12:39:42.438Z,6.10
2017-12-13T12:40:42.465Z,4.60
2017-12-13T12:41:42.499Z,5.80
2017-12-13T12:42:42.531Z,4.70
2017-12-13T12:43:42.561Z,5.80
2017-12-13T12:44:42.596Z,7.80
2017-12-13T12:45:42.635Z,7.30
2017-12-13T12:46:42.659Z,5.80
2017-12-13T12:47:42.698Z,2.90
2017-12-13T12:48:42.724Z,4.20
2017-12-13T12:49:42.756Z,5.00
2017-12-13T12:50:42.787Z,4.40
2017-12-13T12:51:42.818Z,7.40
2017-12-13T12:52:42.852Z,6.80
2017-12-13T12:53:42.888Z,4.60
2017-12-13T12:54:42.929Z,4.80
2017-12-13T12:55:42.947Z,4.60
2017-12-13T12:56:42.981Z,5.80
2017-12-13T12:57:43.012Z,5.60
2017-12-13T12:58:43.087Z,3.80
2017-12-13T12:59:43.078Z,5.00
2017-12-13T13:00:43.107Z,4.40
2017-12-13T13:01:43.138Z,7.30
2017-12-13T13:02:43.178Z,4.10
2017-12-13T13:03:43.203Z,3.40
2017-12-13T13:04:43.233Z,5.70